Time;durP1;ratioP1;P1;durP2;ratioP2;P2;SDS_P1;SDS_P2;PMS_P1;PMS_P2;Temp;Humidity;BMP_temperature;BMP_pressure;BME280_temperature;BME280_humidity;BME280_pressure;Samples;Min_cycle;Max_cycle;Signal;HPM_P1;HPM_P2
2022/01/15 00:01:26;;;;;;;16.33;9.52;;;1.60;99.90;;;;;;5049677;28;20218;-53
2022/01/15 00:03:54;;;;;;;15.32;7.28;;;1.70;99.90;;;;;;5063625;28;20291;-55
2022/01/15 00:06:21;;;;;;;17.52;7.30;;;1.60;99.90;;;;;;5064099;28;20219;-50
2022/01/15 00:08:48;;;;;;;9.60;6.25;;;1.70;99.90;;;;;;5061035;28;20200;-52
2022/01/15 00:11:15;;;;;;;13.65;6.32;;;1.70;99.90;;;;;;5059559;28;20263;-49
2022/01/15 00:13:45;;;;;;;14.57;6.03;;;1.70;99.90;;;;;;5055014;28;20265;-52
2022/01/15 00:16:26;;;;;;;9.00;5.78;;;1.70;99.90;;;;;;5059420;28;20444;-50
2022/01/15 00:19:08;;;;;;;15.25;5.20;;;1.70;99.90;;;;;;5059877;28;20393;-52
2022/01/15 00:21:35;;;;;;;16.50;5.43;;;1.80;99.90;;;;;;5061390;28;20198;-52
2022/01/15 00:24:03;;;;;;;10.52;5.47;;;1.80;99.90;;;;;;5059871;28;20227;-48
2022/01/15 00:26:30;;;;;;;34.08;7.53;;;1.80;99.90;;;;;;5059124;28;20230;-49
2022/01/15 00:28:58;;;;;;;7.68;5.70;;;1.80;99.90;;;;;;5059612;28;20211;-52
2022/01/15 00:31:26;;;;;;;18.83;8.98;;;1.70;99.90;;;;;;5056959;28;20196;-52
2022/01/15 00:33:53;;;;;;;16.83;6.75;;;1.70;99.90;;;;;;5058925;28;20238;-54
2022/01/15 00:36:20;;;;;;;19.73;5.05;;;1.80;99.90;;;;;;5058864;28;20544;-51
2022/01/15 00:38:49;;;;;;;9.80;6.03;;;1.80;99.90;;;;;;5058820;28;20207;-51
2022/01/15 00:41:17;;;;;;;13.27;6.80;;;1.80;99.90;;;;;;5059524;28;20286;-53
2022/01/15 00:43:44;;;;;;;15.40;6.32;;;1.80;99.90;;;;;;5054120;28;20272;-50
2022/01/15 00:46:12;;;;;;;14.90;6.60;;;1.80;99.90;;;;;;5059117;28;20526;-51
2022/01/15 00:48:39;;;;;;;20.48;6.00;;;1.80;99.90;;;;;;5058922;28;20231;-51
2022/01/15 00:51:06;;;;;;;13.52;6.13;;;1.70;99.90;;;;;;5056818;28;20250;-52
2022/01/15 00:53:34;;;;;;;11.20;6.25;;;1.70;99.90;;;;;;5058956;28;20229;-53
2022/01/15 00:56:01;;;;;;;16.63;7.85;;;1.40;99.90;;;;;;5058638;28;20199;-50
2022/01/15 00:58:29;;;;;;;18.00;6.78;;;1.10;99.90;;;;;;5059073;28;20283;-51
2022/01/15 01:00:56;;;;;;;12.85;7.65;;;1.20;99.90;;;;;;5058859;28;20254;-51
2022/01/15 01:03:24;;;;;;;12.35;7.68;;;1.30;99.90;;;;;;5059025;28;20226;-53
2022/01/15 01:05:51;;;;;;;20.95;6.85;;;1.30;99.90;;;;;;5058889;28;20205;-52
2022/01/15 01:08:19;;;;;;;19.90;7.22;;;1.20;99.90;;;;;;5059290;28;20257;-52
2022/01/15 01:10:56;;;;;;;15.70;6.78;;;1.10;99.90;;;;;;5056756;28;20422;-49
2022/01/15 01:24:35;;;;;;;11.82;5.82;;;1.00;99.90;;;;;;5057388;28;20277;-53
2022/01/15 01:27:08;;;;;;;11.57;5.05;;;1.00;99.90;;;;;;5058976;28;20243;-54
2022/01/15 01:29:49;;;;;;;8.93;7.65;;;1.00;99.90;;;;;;5057425;28;20203;-49
2022/01/15 01:35:06;;;;;;;10.25;5.68;;;1.00;99.90;;;;;;5058242;28;20312;-54
2022/01/15 01:37:39;;;;;;;11.68;5.55;;;1.00;99.90;;;;;;5057353;28;20207;-49
2022/01/15 01:40:24;;;;;;;17.08;6.65;;;1.00;99.90;;;;;;5058852;28;20383;-52
2022/01/15 01:45:44;;;;;;;12.20;7.65;;;1.00;99.90;;;;;;5060814;28;20239;-51
2022/01/15 01:48:11;;;;;;;26.92;8.57;;;0.90;99.90;;;;;;5061199;28;20224;-53
2022/01/15 01:50:39;;;;;;;12.18;5.47;;;0.80;99.90;;;;;;5062959;28;20226;-51
2022/01/15 01:53:06;;;;;;;7.32;5.68;;;0.80;99.90;;;;;;5062369;28;20227;-51
2022/01/15 01:55:34;;;;;;;11.88;6.88;;;0.80;99.90;;;;;;5063676;28;20211;-50
2022/01/15 01:58:02;;;;;;;16.02;5.10;;;0.80;99.90;;;;;;5065978;28;20203;-56
2022/01/15 02:00:30;;;;;;;7.43;5.22;;;1.00;99.90;;;;;;5067119;28;20269;-57
2022/01/15 02:03:00;;;;;;;18.88;5.63;;;0.90;99.90;;;;;;5065033;28;20281;-55
2022/01/15 02:05:27;;;;;;;13.43;5.65;;;0.90;99.90;;;;;;5063237;28;20490;-50
2022/01/15 02:07:54;;;;;;;15.63;8.18;;;0.90;99.90;;;;;;5063081;28;20227;-53
2022/01/15 02:10:22;;;;;;;14.77;5.80;;;0.90;99.90;;;;;;5064724;28;20211;-54
2022/01/15 02:12:50;;;;;;;12.63;5.70;;;0.80;99.90;;;;;;5062864;28;20188;-55
2022/01/15 02:15:21;;;;;;;17.13;5.55;;;0.70;99.90;;;;;;5061948;28;20241;-53
2022/01/15 02:17:49;;;;;;;15.43;6.35;;;0.60;99.90;;;;;;5059362;28;20261;-50
2022/01/15 02:26:00;;;;;;;17.02;6.68;;;0.70;99.90;;;;;;5058957;28;20200;-54
2022/01/15 02:28:30;;;;;;;14.45;5.25;;;0.80;99.90;;;;;;5062219;28;20207;-54
2022/01/15 02:31:02;;;;;;;17.73;5.55;;;0.70;99.90;;;;;;5061641;28;20442;-52
2022/01/15 02:33:29;;;;;;;15.52;5.63;;;0.70;99.90;;;;;;5061391;28;20518;-51
2022/01/15 02:35:57;;;;;;;16.25;7.53;;;0.60;99.90;;;;;;5061458;28;20246;-53
2022/01/15 02:38:25;;;;;;;14.60;5.43;;;0.70;99.90;;;;;;5060869;28;20639;-52
2022/01/15 02:40:52;;;;;;;15.48;4.90;;;0.80;99.90;;;;;;5061593;28;20200;-51
2022/01/15 02:43:28;;;;;;;16.98;6.72;;;0.90;99.90;;;;;;5061319;28;20301;-52
2022/01/15 02:45:57;;;;;;;12.43;4.47;;;1.00;99.90;;;;;;5060127;28;20506;-51
2022/01/15 02:48:27;;;;;;;12.07;4.60;;;0.80;99.90;;;;;;5061053;28;20451;-54
2022/01/15 02:50:56;;;;;;;13.88;4.10;;;0.70;99.90;;;;;;5061198;28;20211;-55
2022/01/15 02:53:23;;;;;;;15.70;5.85;;;0.70;99.90;;;;;;5061186;28;20522;-55
2022/01/15 02:55:52;;;;;;;8.23;4.05;;;0.70;99.90;;;;;;5060952;28;20218;-52
2022/01/15 02:58:22;;;;;;;19.55;5.68;;;0.80;99.90;;;;;;5061428;28;20203;-53
2022/01/15 03:00:51;;;;;;;8.55;5.85;;;0.80;99.90;;;;;;5057127;28;20214;-53
2022/01/15 03:03:19;;;;;;;14.52;5.85;;;0.70;99.90;;;;;;5061046;28;20282;-50
2022/01/15 03:05:46;;;;;;;16.60;5.18;;;0.70;99.90;;;;;;5058297;28;20237;-55
2022/01/15 03:08:13;;;;;;;12.93;6.10;;;0.80;99.90;;;;;;5061357;28;20265;-52
2022/01/15 03:10:40;;;;;;;39.47;8.60;;;0.80;99.90;;;;;;5059552;28;20428;-50
2022/01/15 03:13:13;;;;;;;10.82;6.45;;;0.90;99.90;;;;;;5060619;28;20219;-53
2022/01/15 03:15:41;;;;;;;16.85;7.45;;;0.80;99.90;;;;;;5060706;28;20510;-50
2022/01/15 03:18:08;;;;;;;19.17;7.78;;;0.80;99.90;;;;;;5059758;28;20410;-50
2022/01/15 03:20:35;;;;;;;17.42;9.48;;;0.70;99.90;;;;;;5060701;28;20552;-50
2022/01/15 03:23:03;;;;;;;19.98;9.43;;;0.60;99.90;;;;;;5057998;28;20264;-53
2022/01/15 03:25:30;;;;;;;21.35;9.05;;;0.50;99.90;;;;;;5060615;28;20208;-52
2022/01/15 03:27:58;;;;;;;17.92;9.50;;;0.60;99.90;;;;;;5059882;28;20227;-52
2022/01/15 03:30:25;;;;;;;19.08;8.18;;;0.60;99.90;;;;;;5060588;28;20434;-54
2022/01/15 03:32:53;;;;;;;28.30;9.20;;;0.60;99.90;;;;;;5058883;28;20199;-51
2022/01/15 03:35:21;;;;;;;20.58;10.90;;;0.50;99.90;;;;;;5060144;28;20217;-51
2022/01/15 03:37:49;;;;;;;40.97;11.25;;;0.70;99.90;;;;;;5057846;28;20203;-52
2022/01/15 03:40:17;;;;;;;24.05;11.70;;;0.60;99.90;;;;;;5060229;28;20199;-53
2022/01/15 03:42:45;;;;;;;23.65;12.40;;;0.50;99.90;;;;;;5062086;28;20390;-53
2022/01/15 03:45:14;;;;;;;30.33;11.18;;;0.60;99.90;;;;;;5060568;28;20200;-56
2022/01/15 03:47:44;;;;;;;19.35;10.63;;;0.60;99.90;;;;;;5059512;28;20328;-52
2022/01/15 03:50:13;;;;;;;28.02;12.60;;;0.50;99.90;;;;;;5060126;28;20394;-55
2022/01/15 03:52:41;;;;;;;22.60;12.57;;;0.60;99.90;;;;;;5059956;28;20506;-53
2022/01/15 03:55:10;;;;;;;26.38;10.95;;;0.80;99.90;;;;;;5059793;28;20203;-52
2022/01/15 03:57:37;;;;;;;30.42;14.68;;;0.90;99.90;;;;;;5059757;28;20203;-55
2022/01/15 04:00:09;;;;;;;31.95;13.77;;;1.00;99.90;;;;;;5060020;28;20298;-53
2022/01/15 04:02:37;;;;;;;46.00;14.43;;;1.00;99.90;;;;;;5059322;28;20211;-55
2022/01/15 04:05:05;;;;;;;37.60;14.02;;;1.10;99.90;;;;;;5059940;28;20585;-53
2022/01/15 04:07:33;;;;;;;38.35;14.30;;;1.10;99.90;;;;;;5058939;28;20396;-54
2022/01/15 04:10:01;;;;;;;37.80;15.70;;;1.10;99.90;;;;;;5060224;28;20261;-53
2022/01/15 04:12:28;;;;;;;29.60;14.10;;;1.20;99.90;;;;;;5059437;28;20199;-53
2022/01/15 04:14:55;;;;;;;25.17;14.65;;;1.20;99.90;;;;;;5059969;28;20223;-52
2022/01/15 04:17:25;;;;;;;50.22;15.35;;;1.20;99.90;;;;;;5059130;28;20285;-57
2022/01/15 04:19:53;;;;;;;41.15;15.82;;;1.30;99.90;;;;;;5057000;28;20265;-52
2022/01/15 04:22:20;;;;;;;45.30;16.77;;;1.30;99.90;;;;;;5059368;28;20200;-55
2022/01/15 04:24:47;;;;;;;36.63;14.32;;;1.40;99.90;;;;;;5059341;28;20231;-56
2022/01/15 04:27:22;;;;;;;28.75;15.35;;;1.40;99.90;;;;;;5059099;28;20546;-53
2022/01/15 04:29:50;;;;;;;35.83;16.38;;;1.20;99.90;;;;;;5053924;28;20195;-51
2022/01/15 04:32:18;;;;;;;39.45;14.00;;;1.30;99.90;;;;;;5059230;28;20227;-53
2022/01/15 04:34:47;;;;;;;35.47;15.57;;;1.40;99.90;;;;;;5059221;28;20219;-54
2022/01/15 04:37:19;;;;;;;34.15;13.55;;;1.40;99.90;;;;;;5059949;28;20233;-56
2022/01/15 04:39:47;;;;;;;30.20;15.27;;;1.50;99.90;;;;;;5058914;28;20372;-56
2022/01/15 04:42:15;;;;;;;33.88;11.50;;;1.40;99.90;;;;;;5060011;28;20200;-54
2022/01/15 04:44:43;;;;;;;35.38;13.52;;;1.40;99.90;;;;;;5058409;28;20462;-55
2022/01/15 04:47:10;;;;;;;32.28;12.13;;;1.40;99.90;;;;;;5059242;28;20227;-51
2022/01/15 04:49:37;;;;;;;44.17;14.77;;;1.40;99.90;;;;;;5059491;28;20208;-51
2022/01/15 04:52:05;;;;;;;28.75;12.35;;;1.40;99.90;;;;;;5059072;28;20203;-50
2022/01/15 04:54:32;;;;;;;27.63;14.15;;;1.30;99.90;;;;;;5059445;28;20222;-52
2022/01/15 04:56:59;;;;;;;24.67;12.40;;;1.40;99.90;;;;;;5058986;28;20226;-55
2022/01/15 04:59:26;;;;;;;37.78;12.35;;;1.40;99.90;;;;;;5059464;28;20199;-51
2022/01/15 05:01:54;;;;;;;28.65;13.02;;;1.40;99.90;;;;;;5058735;28;20433;-52
2022/01/15 05:04:21;;;;;;;31.20;12.73;;;1.30;99.90;;;;;;5059294;28;20452;-50
2022/01/15 05:06:48;;;;;;;37.50;13.45;;;1.40;99.90;;;;;;5056068;28;20215;-52
2022/01/15 05:09:16;;;;;;;31.80;13.13;;;1.40;99.90;;;;;;5059137;28;20234;-51
2022/01/15 05:12:09;;;;;;;32.90;13.80;;;1.40;99.90;;;;;;5058903;28;20519;-51
2022/01/15 05:14:30;;;;;;;30.35;13.10;;;1.40;99.90;;;;;;5058569;28;20215;-52
2022/01/15 05:16:57;;;;;;;27.90;11.88;;;1.40;99.90;;;;;;5058999;28;20208;-52
2022/01/15 05:19:25;;;;;;;34.60;12.70;;;1.40;99.90;;;;;;5058315;28;20253;-52
2022/01/15 05:21:55;;;;;;;30.50;13.13;;;1.40;99.90;;;;;;5060035;28;20517;-52
2022/01/15 05:24:26;;;;;;;24.92;11.35;;;1.40;99.90;;;;;;5064152;28;20228;-53
2022/01/15 05:26:54;;;;;;;25.67;12.82;;;1.30;99.90;;;;;;5061735;28;20199;-52
2022/01/15 05:29:21;;;;;;;30.33;11.82;;;1.40;99.90;;;;;;5062413;28;20196;-51
2022/01/15 05:31:48;;;;;;;21.00;12.40;;;1.40;99.90;;;;;;5060484;28;20215;-55
2022/01/15 05:34:15;;;;;;;29.08;13.70;;;1.40;99.90;;;;;;5062430;28;20215;-49
2022/01/15 05:36:43;;;;;;;32.55;13.98;;;1.40;99.90;;;;;;5061686;28;20514;-50
2022/01/15 05:39:11;;;;;;;26.50;10.57;;;1.40;99.90;;;;;;5062615;28;20203;-52
2022/01/15 05:41:39;;;;;;;22.98;11.52;;;1.40;99.90;;;;;;5062110;28;20204;-52
2022/01/15 05:44:06;;;;;;;24.65;10.75;;;1.40;99.90;;;;;;5062582;28;20530;-50
2022/01/15 05:46:34;;;;;;;26.48;12.30;;;1.40;99.90;;;;;;5062111;28;20199;-51
2022/01/15 05:49:03;;;;;;;36.25;13.45;;;1.50;99.90;;;;;;5062355;28;20274;-49
2022/01/15 05:51:31;;;;;;;31.20;13.90;;;1.50;99.90;;;;;;5062006;28;20196;-50
2022/01/15 05:54:00;;;;;;;27.25;11.18;;;1.40;99.90;;;;;;5062417;28;20257;-54
2022/01/15 05:56:28;;;;;;;28.77;13.80;;;1.50;99.90;;;;;;5062260;28;20241;-52
2022/01/15 05:58:56;;;;;;;37.28;13.77;;;1.50;99.90;;;;;;5059606;28;20246;-50
2022/01/15 06:01:23;;;;;;;26.13;12.70;;;1.50;99.90;;;;;;5062026;28;20253;-51
2022/01/15 06:03:51;;;;;;;32.80;13.75;;;1.40;99.90;;;;;;5062109;28;20438;-53
2022/01/15 06:06:18;;;;;;;35.45;13.73;;;1.40;99.90;;;;;;5062605;28;20192;-50
2022/01/15 06:08:46;;;;;;;41.53;14.15;;;1.50;99.90;;;;;;5061262;28;20553;-51
2022/01/15 06:11:17;;;;;;;26.80;13.15;;;1.60;99.90;;;;;;5062479;28;20430;-52
2022/01/15 06:13:46;;;;;;;41.13;14.43;;;1.60;99.90;;;;;;5058660;28;20215;-50
2022/01/15 06:16:14;;;;;;;35.00;13.38;;;1.80;99.90;;;;;;5059846;28;20241;-53
2022/01/15 06:18:41;;;;;;;28.27;14.00;;;1.90;99.90;;;;;;5060925;28;20225;-51
2022/01/15 06:21:09;;;;;;;49.00;14.90;;;1.90;99.90;;;;;;5061930;28;20290;-50
2022/01/15 06:23:36;;;;;;;33.15;14.35;;;1.70;99.90;;;;;;5061705;28;20219;-54
2022/01/15 06:26:04;;;;;;;32.53;11.70;;;1.70;99.90;;;;;;5061137;28;20211;-51
2022/01/15 06:28:31;;;;;;;29.80;13.30;;;1.70;99.90;;;;;;5061428;28;20223;-54
2022/01/15 06:30:58;;;;;;;24.70;11.15;;;1.70;99.90;;;;;;5061910;28;20199;-51
2022/01/15 06:33:30;;;;;;;26.02;11.65;;;1.70;99.90;;;;;;5061821;28;20239;-51
2022/01/15 06:35:58;;;;;;;24.30;10.93;;;1.70;99.90;;;;;;5061264;28;20224;-50
2022/01/15 06:38:26;;;;;;;24.35;12.13;;;1.70;99.90;;;;;;5061186;28;20217;-54
2022/01/15 06:40:54;;;;;;;28.00;11.07;;;1.70;99.90;;;;;;5061541;28;20211;-52
2022/01/15 06:43:21;;;;;;;24.73;11.75;;;1.80;99.90;;;;;;5061559;28;20573;-50
2022/01/15 06:45:48;;;;;;;27.27;10.77;;;1.80;99.90;;;;;;5061408;28;20212;-50
2022/01/15 06:48:15;;;;;;;32.75;13.00;;;1.80;99.90;;;;;;5061127;28;20219;-49
2022/01/15 06:50:43;;;;;;;30.20;12.57;;;1.80;99.90;;;;;;5061270;28;20498;-49
2022/01/15 06:53:11;;;;;;;30.63;13.75;;;1.80;99.90;;;;;;5060904;28;20299;-51
2022/01/15 06:55:39;;;;;;;25.13;10.60;;;1.90;99.90;;;;;;5061389;28;20204;-49
2022/01/15 06:58:06;;;;;;;26.50;11.98;;;1.90;99.90;;;;;;5060721;28;20207;-49
2022/01/15 07:00:34;;;;;;;34.92;12.27;;;1.90;99.90;;;;;;5061114;28;20238;-54
2022/01/15 07:03:02;;;;;;;34.55;9.88;;;1.90;99.90;;;;;;5062700;28;20223;-51
2022/01/15 07:05:31;;;;;;;33.42;11.32;;;1.80;99.90;;;;;;5061951;28;20207;-50
2022/01/15 07:07:58;;;;;;;30.65;13.50;;;2.00;99.90;;;;;;5061523;28;20227;-50
2022/01/15 07:10:26;;;;;;;29.73;10.80;;;1.90;99.90;;;;;;5060842;28;20577;-51
2022/01/15 07:12:53;;;;;;;30.58;12.30;;;2.10;99.90;;;;;;5060812;28;20351;-55
2022/01/15 07:15:20;;;;;;;24.55;11.02;;;2.20;99.90;;;;;;5060345;28;20195;-49
2022/01/15 07:17:49;;;;;;;18.70;10.90;;;2.30;99.90;;;;;;5060129;28;20215;-49
2022/01/15 07:20:18;;;;;;;29.00;13.05;;;2.30;99.90;;;;;;5060258;28;20203;-52
2022/01/15 07:22:46;;;;;;;33.10;14.43;;;2.30;99.90;;;;;;5060377;28;20241;-51
2022/01/15 07:25:14;;;;;;;27.27;13.95;;;2.30;99.90;;;;;;5060168;28;20199;-53
2022/01/15 07:27:42;;;;;;;32.40;16.00;;;2.30;99.90;;;;;;5059043;28;20442;-53
2022/01/15 07:30:11;;;;;;;32.80;14.10;;;2.20;99.90;;;;;;5060342;28;20502;-52
2022/01/15 07:32:40;;;;;;;30.30;13.63;;;2.10;99.90;;;;;;5060198;28;20204;-49
2022/01/15 07:35:10;;;;;;;32.60;12.60;;;2.20;99.90;;;;;;5060588;28;20196;-53
2022/01/15 07:37:38;;;;;;;36.20;12.80;;;2.00;99.90;;;;;;5060019;28;20203;-54
2022/01/15 07:40:06;;;;;;;39.03;14.07;;;2.10;99.90;;;;;;5060534;28;20199;-49
2022/01/15 07:42:38;;;;;;;30.00;13.85;;;2.00;99.90;;;;;;5059599;28;20395;-52
2022/01/15 07:45:09;;;;;;;32.65;11.00;;;2.10;99.90;;;;;;5059996;28;20293;-50
2022/01/15 07:47:37;;;;;;;27.75;12.75;;;2.10;99.90;;;;;;5059118;28;20212;-52
2022/01/15 07:50:07;;;;;;;29.38;12.57;;;2.20;99.90;;;;;;5060091;28;20207;-51
2022/01/15 07:52:34;;;;;;;30.23;13.07;;;2.10;99.90;;;;;;5058201;28;20207;-50
2022/01/15 07:55:03;;;;;;;24.45;9.55;;;2.10;99.90;;;;;;5060369;28;20199;-51
2022/01/15 07:57:51;;;;;;;24.40;12.15;;;1.90;99.90;;;;;;5057541;28;20196;-50
2022/01/15 08:00:19;;;;;;;38.15;14.40;;;2.00;99.90;;;;;;5063208;28;20208;-51
2022/01/15 08:02:46;;;;;;;26.23;9.70;;;2.00;99.90;;;;;;5062760;28;20261;-51
2022/01/15 08:05:13;;;;;;;27.45;14.15;;;2.10;99.90;;;;;;5060764;28;20219;-52
2022/01/15 08:07:42;;;;;;;23.52;10.85;;;2.00;99.90;;;;;;5058394;28;20203;-51
2022/01/15 08:10:09;;;;;;;23.00;11.57;;;2.10;99.90;;;;;;5060316;28;20200;-54
2022/01/15 08:12:48;;;;;;;26.10;11.75;;;2.30;99.90;;;;;;5060410;28;20219;-50
2022/01/15 08:15:17;;;;;;;30.05;11.10;;;2.40;99.90;;;;;;5060367;28;20285;-52
2022/01/15 08:17:45;;;;;;;25.23;11.25;;;2.30;99.90;;;;;;5059549;28;20195;-49
2022/01/15 08:20:13;;;;;;;41.42;11.25;;;2.20;99.90;;;;;;5060094;28;20200;-48
2022/01/15 08:22:42;;;;;;;27.10;12.00;;;2.10;99.90;;;;;;5060357;28;20298;-50
2022/01/15 08:25:16;;;;;;;39.92;11.60;;;2.10;99.90;;;;;;5060209;28;20275;-51
2022/01/15 08:27:47;;;;;;;23.88;11.48;;;2.10;99.90;;;;;;5060159;28;20195;-51
2022/01/15 08:30:15;;;;;;;18.67;9.93;;;2.30;99.90;;;;;;5060391;28;20203;-52
2022/01/15 08:32:43;;;;;;;13.52;8.60;;;2.30;99.90;;;;;;5059485;28;20196;-52
2022/01/15 08:35:10;;;;;;;34.03;12.57;;;2.30;99.90;;;;;;5055161;28;20193;-52
2022/01/15 08:37:38;;;;;;;32.20;10.07;;;2.40;99.90;;;;;;5041839;28;20323;-50
2022/01/15 08:40:11;;;;;;;25.90;13.18;;;2.30;99.90;;;;;;5059887;28;20210;-50
2022/01/15 08:42:39;;;;;;;32.22;11.73;;;2.40;99.90;;;;;;5059313;28;20195;-53
2022/01/15 08:45:08;;;;;;;25.17;10.65;;;2.40;99.90;;;;;;5062814;28;20212;-54
2022/01/15 08:47:36;;;;;;;29.98;11.02;;;2.30;99.90;;;;;;5061081;28;20208;-52
2022/01/15 08:50:04;;;;;;;17.45;8.10;;;2.30;99.90;;;;;;5059875;28;20249;-51
2022/01/15 08:52:32;;;;;;;23.88;12.85;;;2.40;99.90;;;;;;5059864;28;20291;-53
2022/01/15 08:54:59;;;;;;;16.63;9.43;;;2.30;99.90;;;;;;5046324;28;20217;-51
2022/01/15 08:57:27;;;;;;;22.73;8.85;;;2.40;99.90;;;;;;5052041;28;20257;-51
2022/01/15 08:59:54;;;;;;;34.67;12.23;;;2.40;99.90;;;;;;5063373;28;20235;-53
2022/01/15 09:02:21;;;;;;;23.20;9.57;;;2.50;99.90;;;;;;5050754;28;20199;-53
2022/01/15 09:04:49;;;;;;;23.77;9.68;;;2.60;99.90;;;;;;5048842;28;20227;-51
2022/01/15 09:07:16;;;;;;;29.65;9.80;;;2.70;99.90;;;;;;5059418;28;20199;-50
2022/01/15 09:09:44;;;;;;;19.20;9.48;;;2.80;99.90;;;;;;5062978;28;20223;-52
2022/01/15 09:12:15;;;;;;;18.42;9.57;;;2.90;99.90;;;;;;5049754;28;20202;-52
2022/01/15 09:14:43;;;;;;;15.43;8.57;;;2.80;99.90;;;;;;5045391;28;20460;-51
2022/01/15 09:17:10;;;;;;;28.90;10.73;;;2.80;99.90;;;;;;5050351;28;20221;-55
2022/01/15 09:19:37;;;;;;;17.17;10.20;;;2.90;99.90;;;;;;5066584;28;20418;-53
2022/01/15 09:22:08;;;;;;;17.63;9.00;;;3.10;99.90;;;;;;5063156;28;20216;-49
2022/01/15 09:24:35;;;;;;;24.80;10.90;;;3.10;99.90;;;;;;5063258;28;20258;-54
2022/01/15 09:30:12;;;;;;;17.75;8.15;;;3.20;99.90;;;;;;5062674;28;20219;-51
2022/01/15 09:32:37;;;;;;;17.42;8.43;;;3.40;99.90;;;;;;5062594;28;20239;-48
2022/01/15 09:35:05;;;;;;;19.75;9.30;;;3.50;99.90;;;;;;5061666;28;20246;-50
2022/01/15 09:37:32;;;;;;;17.85;9.25;;;3.50;99.90;;;;;;5062658;28;20242;-52
2022/01/15 09:40:00;;;;;;;18.77;9.60;;;3.50;99.90;;;;;;5062863;28;20202;-52
2022/01/15 09:42:27;;;;;;;16.08;9.30;;;3.70;99.90;;;;;;5059040;28;20247;-49
2022/01/15 09:44:55;;;;;;;14.85;8.70;;;3.70;99.90;;;;;;5062276;28;20557;-49
2022/01/15 09:47:22;;;;;;;15.18;7.00;;;3.70;99.90;;;;;;5062657;28;20223;-50
2022/01/15 09:49:52;;;;;;;16.40;8.25;;;3.70;99.90;;;;;;5044348;28;20233;-51
2022/01/15 09:52:20;;;;;;;18.80;9.55;;;3.80;99.90;;;;;;5046971;28;20400;-53
2022/01/15 09:54:48;;;;;;;17.33;9.05;;;3.70;99.90;;;;;;5048437;28;20225;-54
2022/01/15 09:57:15;;;;;;;17.33;9.77;;;4.10;99.90;;;;;;5048021;28;20199;-49
2022/01/15 09:59:43;;;;;;;17.65;9.07;;;4.10;99.90;;;;;;5061764;28;20205;-52
2022/01/15 10:02:10;;;;;;;15.52;8.38;;;4.10;99.90;;;;;;5063091;28;20208;-50
2022/01/15 10:04:37;;;;;;;22.20;8.80;;;4.30;99.90;;;;;;5062811;28;20292;-50
2022/01/15 10:07:06;;;;;;;20.80;9.75;;;4.30;99.90;;;;;;5062172;28;20210;-50
2022/01/15 10:09:34;;;;;;;14.32;7.15;;;4.30;99.90;;;;;;5061528;28;20222;-51
2022/01/15 10:12:02;;;;;;;13.95;7.50;;;4.20;99.90;;;;;;5060726;28;20202;-48
2022/01/15 10:14:30;;;;;;;15.10;7.85;;;4.10;99.90;;;;;;5049450;28;20600;-52
2022/01/15 10:17:00;;;;;;;15.20;7.43;;;4.10;99.90;;;;;;5046024;28;20205;-53
2022/01/15 10:19:37;;;;;;;15.85;9.45;;;4.00;99.90;;;;;;5044017;28;20260;-49
2022/01/15 10:22:20;;;;;;;14.95;8.50;;;3.90;99.90;;;;;;5050053;28;20213;-48
2022/01/15 10:24:55;;;;;;;25.00;8.82;;;4.00;99.90;;;;;;5052887;28;20215;-49
2022/01/15 10:27:25;;;;;;;19.38;7.47;;;3.90;99.90;;;;;;5044001;28;20325;-53
2022/01/15 10:30:26;;;;;;;29.17;11.10;;;3.90;99.90;;;;;;5054418;28;20293;-53
2022/01/15 10:33:09;;;;;;;12.05;8.20;;;3.90;99.90;;;;;;5038906;28;20497;-49
2022/01/15 10:35:43;;;;;;;18.80;8.07;;;3.90;99.90;;;;;;5041445;28;20204;-48
2022/01/15 10:38:14;;;;;;;12.63;6.53;;;4.00;99.90;;;;;;5041812;28;20499;-53
2022/01/15 10:40:53;;;;;;;19.08;9.20;;;3.80;99.90;;;;;;5040984;28;20281;-53
2022/01/15 10:43:31;;;;;;;19.17;8.93;;;3.80;99.90;;;;;;5042427;28;20218;-51
2022/01/15 10:46:01;;;;;;;18.63;8.93;;;3.80;99.90;;;;;;5041575;28;20507;-49
2022/01/15 10:48:34;;;;;;;14.70;10.40;;;3.80;99.90;;;;;;5042014;28;20246;-53
2022/01/15 10:51:04;;;;;;;18.92;8.23;;;3.90;99.90;;;;;;5041524;28;20222;-49
2022/01/15 10:53:40;;;;;;;25.25;9.38;;;4.00;99.90;;;;;;5041882;28;20222;-50
2022/01/15 10:56:10;;;;;;;20.25;9.93;;;4.10;99.90;;;;;;5041530;28;20206;-52
2022/01/15 10:58:38;;;;;;;14.80;8.82;;;4.10;99.90;;;;;;5041360;28;20320;-50
2022/01/15 11:01:06;;;;;;;10.82;6.45;;;4.00;99.90;;;;;;5041681;28;20205;-49
2022/01/15 11:03:38;;;;;;;31.48;6.38;;;4.20;99.90;;;;;;5040683;28;20229;-48
2022/01/15 11:06:06;;;;;;;11.05;5.53;;;4.30;99.90;;;;;;5041278;28;20382;-48
2022/01/15 11:08:39;;;;;;;14.98;6.85;;;4.50;99.90;;;;;;5040885;28;20226;-50
2022/01/15 11:11:08;;;;;;;14.18;7.30;;;4.60;99.90;;;;;;5041446;28;20548;-52
2022/01/15 11:13:37;;;;;;;11.38;6.00;;;4.60;99.90;;;;;;5040956;28;20604;-53
2022/01/15 11:16:14;;;;;;;12.25;6.47;;;4.60;99.90;;;;;;5040925;28;20203;-50
2022/01/15 11:18:49;;;;;;;17.65;7.45;;;4.60;99.90;;;;;;5041056;28;20412;-50
2022/01/15 11:21:18;;;;;;;11.90;6.25;;;4.50;99.90;;;;;;5039820;28;20625;-50
2022/01/15 11:23:47;;;;;;;12.45;6.93;;;4.50;99.90;;;;;;5040536;28;20290;-48
2022/01/15 11:26:27;;;;;;;14.55;7.03;;;4.50;99.90;;;;;;5040600;28;20211;-55
2022/01/15 11:28:55;;;;;;;12.15;5.70;;;4.60;99.90;;;;;;5041113;28;20223;-51
2022/01/15 11:31:23;;;;;;;11.55;6.32;;;4.60;99.90;;;;;;5041084;28;20381;-49
2022/01/15 11:33:56;;;;;;;13.65;6.22;;;4.60;99.90;;;;;;5040413;28;20284;-51
2022/01/15 11:36:33;;;;;;;14.48;6.88;;;4.70;99.90;;;;;;5040603;28;20206;-51
2022/01/15 11:39:05;;;;;;;9.73;6.07;;;4.90;99.90;;;;;;5040748;28;20194;-53
2022/01/15 11:41:44;;;;;;;12.00;7.50;;;5.00;99.90;;;;;;5077065;28;20708;-52
2022/01/15 11:44:14;;;;;;;10.25;6.00;;;4.90;99.90;;;;;;5076771;28;20343;-53
2022/01/15 11:46:53;;;;;;;20.42;6.60;;;4.90;99.90;;;;;;5074671;28;20212;-51
2022/01/15 11:49:36;;;;;;;11.45;5.43;;;4.80;99.90;;;;;;5087937;28;20639;-49
2022/01/15 11:52:08;;;;;;;14.10;5.75;;;4.80;99.90;;;;;;5079025;28;20201;-51
2022/01/15 11:54:59;;;;;;;12.02;5.57;;;4.80;99.90;;;;;;5095266;28;20216;-52
2022/01/15 11:57:35;;;;;;;12.88;6.43;;;4.60;99.90;;;;;;5087199;28;20266;-52
2022/01/15 12:00:16;;;;;;;12.38;5.05;;;4.60;99.90;;;;;;5086852;28;20279;-51
2022/01/15 12:02:59;;;;;;;13.07;6.93;;;4.60;99.90;;;;;;5099838;28;20209;-50
2022/01/15 12:05:29;;;;;;;15.23;6.55;;;4.60;99.90;;;;;;5097799;28;20233;-51
2022/01/15 12:07:59;;;;;;;8.35;6.35;;;4.70;99.90;;;;;;5097006;28;20204;-51
2022/01/15 12:10:47;;;;;;;14.15;5.88;;;4.90;99.90;;;;;;5060330;28;20533;-55
2022/01/15 12:13:18;;;;;;;9.77;5.75;;;5.00;99.90;;;;;;5080161;28;20211;-52
2022/01/15 12:15:47;;;;;;;11.55;6.32;;;5.10;99.90;;;;;;5095699;28;20206;-49
2022/01/15 12:18:18;;;;;;;20.73;5.45;;;5.10;99.90;;;;;;5095782;28;20203;-52
2022/01/15 12:20:50;;;;;;;10.25;5.35;;;5.20;99.90;;;;;;5097439;28;20208;-52
2022/01/15 12:23:17;;;;;;;10.18;5.38;;;5.10;99.90;;;;;;5083158;28;20218;-52
2022/01/15 12:25:45;;;;;;;9.43;5.45;;;5.00;99.90;;;;;;5096685;28;20336;-52
2022/01/15 12:28:15;;;;;;;10.48;6.07;;;4.90;99.90;;;;;;5097006;28;20234;-51
2022/01/15 12:30:48;;;;;;;10.77;5.50;;;4.80;99.90;;;;;;5090876;28;20188;-52
2022/01/15 12:33:21;;;;;;;15.13;6.30;;;4.80;99.90;;;;;;5074961;28;20239;-48
2022/01/15 12:35:57;;;;;;;7.07;4.55;;;4.80;99.90;;;;;;5078016;28;20190;-50
2022/01/15 12:38:27;;;;;;;7.68;5.78;;;4.60;99.90;;;;;;5077471;28;20506;-50
2022/01/15 12:40:55;;;;;;;12.60;5.63;;;4.60;99.90;;;;;;5077345;28;20259;-53
2022/01/15 12:43:40;;;;;;;13.60;6.97;;;4.50;99.90;;;;;;5077465;28;20260;-51
2022/01/15 12:46:12;;;;;;;17.42;6.60;;;4.50;99.90;;;;;;5077379;28;20198;-52
2022/01/15 12:48:44;;;;;;;10.85;5.40;;;4.40;99.90;;;;;;5077780;28;20493;-50
2022/01/15 12:51:14;;;;;;;10.25;5.07;;;4.50;99.90;;;;;;5074198;28;20584;-52
2022/01/15 12:53:47;;;;;;;13.38;5.53;;;4.40;99.90;;;;;;5062847;28;20221;-49
2022/01/15 12:56:18;;;;;;;9.25;6.15;;;4.40;99.90;;;;;;5062393;28;20200;-51
2022/01/15 12:58:48;;;;;;;9.05;5.10;;;4.40;99.90;;;;;;5062657;28;20209;-54
2022/01/15 13:01:22;;;;;;;18.00;7.85;;;4.40;99.90;;;;;;5062591;28;20227;-53
2022/01/15 13:03:50;;;;;;;16.02;6.70;;;4.50;99.90;;;;;;5062641;28;20232;-52
2022/01/15 13:06:21;;;;;;;8.65;5.40;;;4.50;99.90;;;;;;5062232;28;20284;-52
2022/01/15 13:08:50;;;;;;;16.50;5.70;;;4.50;99.90;;;;;;5062355;28;20197;-50
2022/01/15 13:13:53;;;;;;;9.32;4.47;;;4.40;99.90;;;;;;5062146;28;20252;-49
2022/01/15 13:16:23;;;;;;;8.35;4.78;;;4.40;99.90;;;;;;5062531;28;20199;-50
2022/01/15 13:18:54;;;;;;;8.15;4.30;;;4.40;99.90;;;;;;5062090;28;20209;-52
2022/01/15 13:21:31;;;;;;;20.73;7.45;;;4.50;99.90;;;;;;5062328;28;20276;-51
2022/01/15 13:24:08;;;;;;;11.10;4.82;;;4.50;99.90;;;;;;5061667;28;20224;-48